sensor_id;sensor_type;location;lat;lon;timestamp;temperature;humidity
67275;DHT22;55463;52.324;5.122;2023-02-17T00:01:31;10.96;96.62
67275;DHT22;55463;52.324;5.122;2023-02-17T00:03:57;11.24;96.48
67275;DHT22;55463;52.324;5.122;2023-02-17T00:06:36;10.69;97.38
67275;DHT22;55463;52.324;5.122;2023-02-17T00:09:01;11.22;97.14
67275;DHT22;55463;52.324;5.122;2023-02-17T00:11:29;10.79;97.67
67275;DHT22;55463;52.324;5.122;2023-02-17T00:13:59;10.84;97.06
67275;DHT22;55463;52.324;5.122;2023-02-17T00:16:29;10.91;97.42
67275;DHT22;55463;52.324;5.122;2023-02-17T00:18:59;10.93;96.84
67275;DHT22;55463;52.324;5.122;2023-02-17T00:21:27;11.10;97.29
67275;DHT22;55463;52.324;5.122;2023-02-17T00:23:53;10.97;97.34
67275;DHT22;55463;52.324;5.122;2023-02-17T00:26:22;10.79;97.26
67275;DHT22;55463;52.324;5.122;2023-02-17T00:28:52;10.60;97.55
67275;DHT22;55463;52.324;5.122;2023-02-17T00:31:21;10.72;97.79
67275;DHT22;55463;52.324;5.122;2023-02-17T00:33:53;10.74;97.35
67275;DHT22;55463;52.324;5.122;2023-02-17T00:36:19;10.81;97.51
67275;DHT22;55463;52.324;5.122;2023-02-17T00:38:48;10.48;97.63
67275;DHT22;55463;52.324;5.122;2023-02-17T00:41:14;10.55;97.86
67275;DHT22;55463;52.324;5.122;2023-02-17T00:43:42;10.72;97.36
67275;DHT22;55463;52.324;5.122;2023-02-17T00:46:08;10.73;97.89
67275;DHT22;55463;52.324;5.122;2023-02-17T00:48:42;10.63;97.40
67275;DHT22;55463;52.324;5.122;2023-02-17T00:51:08;10.60;97.21
67275;DHT22;55463;52.324;5.122;2023-02-17T00:53:34;10.63;97.70
67275;DHT22;55463;52.324;5.122;2023-02-17T00:56:03;10.64;97.56
67275;DHT22;55463;52.324;5.122;2023-02-17T00:58:34;10.83;97.82
67275;DHT22;55463;52.324;5.122;2023-02-17T01:01:00;10.69;97.75
67275;DHT22;55463;52.324;5.122;2023-02-17T01:03:27;10.81;97.29
67275;DHT22;55463;52.324;5.122;2023-02-17T01:05:53;10.84;97.32
67275;DHT22;55463;52.324;5.122;2023-02-17T01:08:22;10.64;97.59
67275;DHT22;55463;52.324;5.122;2023-02-17T01:10:53;10.63;97.49
67275;DHT22;55463;52.324;5.122;2023-02-17T01:13:21;10.84;97.41
67275;DHT22;55463;52.324;5.122;2023-02-17T01:19:15;10.83;96.90
67275;DHT22;55463;52.324;5.122;2023-02-17T01:21:41;10.22;97.77
67275;DHT22;55463;52.324;5.122;2023-02-17T01:24:08;10.01;98.38
67275;DHT22;55463;52.324;5.122;2023-02-17T01:26:34;9.95;98.16
67275;DHT22;55463;52.324;5.122;2023-02-17T01:29:02;9.97;98.05
67275;DHT22;55463;52.324;5.122;2023-02-17T01:31:28;9.83;98.30
67275;DHT22;55463;52.324;5.122;2023-02-17T01:33:59;9.73;98.46
67275;DHT22;55463;52.324;5.122;2023-02-17T01:36:25;9.72;98.64
67275;DHT22;55463;52.324;5.122;2023-02-17T01:38:50;9.89;98.49
67275;DHT22;55463;52.324;5.122;2023-02-17T01:41:27;9.80;98.20
67275;DHT22;55463;52.324;5.122;2023-02-17T01:44:15;9.83;98.29
67275;DHT22;55463;52.324;5.122;2023-02-17T01:50:16;9.89;98.35
67275;DHT22;55463;52.324;5.122;2023-02-17T01:52:43;9.89;98.35
67275;DHT22;55463;52.324;5.122;2023-02-17T01:55:12;9.97;98.35
67275;DHT22;55463;52.324;5.122;2023-02-17T01:57:50;9.83;98.23
67275;DHT22;55463;52.324;5.122;2023-02-17T02:00:19;9.93;98.45
67275;DHT22;55463;52.324;5.122;2023-02-17T02:02:47;9.95;98.47
67275;DHT22;55463;52.324;5.122;2023-02-17T02:05:17;9.90;98.32
67275;DHT22;55463;52.324;5.122;2023-02-17T02:07:45;9.94;98.78
67275;DHT22;55463;52.324;5.122;2023-02-17T02:10:15;9.83;98.53
67275;DHT22;55463;52.324;5.122;2023-02-17T02:12:41;9.89;98.37
67275;DHT22;55463;52.324;5.122;2023-02-17T02:15:15;9.87;98.33
67275;DHT22;55463;52.324;5.122;2023-02-17T02:26:35;9.74;98.38
67275;DHT22;55463;52.324;5.122;2023-02-17T02:35:00;9.63;98.21
67275;DHT22;55463;52.324;5.122;2023-02-17T02:37:34;9.69;98.08
67275;DHT22;55463;52.324;5.122;2023-02-17T02:40:06;9.65;98.20
67275;DHT22;55463;52.324;5.122;2023-02-17T02:42:35;9.65;98.85
67275;DHT22;55463;52.324;5.122;2023-02-17T02:45:01;9.62;98.30
67275;DHT22;55463;52.324;5.122;2023-02-17T02:47:34;9.56;98.17
67275;DHT22;55463;52.324;5.122;2023-02-17T02:50:09;9.63;98.44
67275;DHT22;55463;52.324;5.122;2023-02-17T02:55:07;9.49;98.40
67275;DHT22;55463;52.324;5.122;2023-02-17T02:57:57;9.53;98.70
67275;DHT22;55463;52.324;5.122;2023-02-17T03:00:39;9.42;98.88
67275;DHT22;55463;52.324;5.122;2023-02-17T03:10:53;9.29;98.66
67275;DHT22;55463;52.324;5.122;2023-02-17T03:13:19;9.28;98.71
67275;DHT22;55463;52.324;5.122;2023-02-17T03:15:45;9.18;99.08
67275;DHT22;55463;52.324;5.122;2023-02-17T03:18:11;9.20;98.99
67275;DHT22;55463;52.324;5.122;2023-02-17T03:20:40;9.18;98.92
67275;DHT22;55463;52.324;5.122;2023-02-17T03:23:08;9.12;98.87
67275;DHT22;55463;52.324;5.122;2023-02-17T03:25:34;9.11;98.77
67275;DHT22;55463;52.324;5.122;2023-02-17T03:27:59;9.08;98.77
67275;DHT22;55463;52.324;5.122;2023-02-17T03:30:34;9.07;99.16
67275;DHT22;55463;52.324;5.122;2023-02-17T03:32:59;9.07;99.01
67275;DHT22;55463;52.324;5.122;2023-02-17T03:35:25;8.93;99.29
67275;DHT22;55463;52.324;5.122;2023-02-17T03:37:50;8.94;99.34
67275;DHT22;55463;52.324;5.122;2023-02-17T03:40:16;8.93;99.47
67275;DHT22;55463;52.324;5.122;2023-02-17T03:42:42;8.91;99.42
67275;DHT22;55463;52.324;5.122;2023-02-17T03:45:10;8.81;99.49
67275;DHT22;55463;52.324;5.122;2023-02-17T03:47:43;8.80;99.60
67275;DHT22;55463;52.324;5.122;2023-02-17T03:50:09;8.80;99.63
67275;DHT22;55463;52.324;5.122;2023-02-17T03:52:40;8.75;99.70
67275;DHT22;55463;52.324;5.122;2023-02-17T03:55:05;8.73;99.67
67275;DHT22;55463;52.324;5.122;2023-02-17T03:57:31;8.67;99.73
67275;DHT22;55463;52.324;5.122;2023-02-17T04:00:01;8.75;99.63
67275;DHT22;55463;52.324;5.122;2023-02-17T04:02:26;8.75;99.66
67275;DHT22;55463;52.324;5.122;2023-02-17T04:04:52;8.72;99.76
67275;DHT22;55463;52.324;5.122;2023-02-17T04:07:17;8.69;99.89
67275;DHT22;55463;52.324;5.122;2023-02-17T04:09:43;8.70;99.85
67275;DHT22;55463;52.324;5.122;2023-02-17T04:12:08;8.72;99.90
67275;DHT22;55463;52.324;5.122;2023-02-17T04:14:34;8.72;99.86
67275;DHT22;55463;52.324;5.122;2023-02-17T04:17:05;8.69;99.96
67275;DHT22;55463;52.324;5.122;2023-02-17T04:19:31;8.72;99.92
67275;DHT22;55463;52.324;5.122;2023-02-17T04:21:58;8.72;99.98
67275;DHT22;55463;52.324;5.122;2023-02-17T04:24:29;8.70;99.99
67275;DHT22;55463;52.324;5.122;2023-02-17T04:26:54;8.70;99.99
67275;DHT22;55463;52.324;5.122;2023-02-17T04:29:22;8.69;99.99
67275;DHT22;55463;52.324;5.122;2023-02-17T04:31:48;8.77;99.99
67275;DHT22;55463;52.324;5.122;2023-02-17T04:34:13;8.81;99.98
67275;DHT22;55463;52.324;5.122;2023-02-17T04:36:39;8.83;99.99
67275;DHT22;55463;52.324;5.122;2023-02-17T04:39:04;8.84;99.99
67275;DHT22;55463;52.324;5.122;2023-02-17T04:41:35;8.86;99.99
67275;DHT22;55463;52.324;5.122;2023-02-17T04:44:01;8.90;99.99
67275;DHT22;55463;52.324;5.122;2023-02-17T04:46:29;8.93;99.95
67275;DHT22;55463;52.324;5.122;2023-02-17T04:48:57;8.96;99.97
67275;DHT22;55463;52.324;5.122;2023-02-17T04:51:30;8.94;99.96
67275;DHT22;55463;52.324;5.122;2023-02-17T04:53:55;9.00;99.95
67275;DHT22;55463;52.324;5.122;2023-02-17T04:56:21;9.01;99.91
67275;DHT22;55463;52.324;5.122;2023-02-17T04:58:47;9.00;99.92
67275;DHT22;55463;52.324;5.122;2023-02-17T05:01:12;9.07;99.81
67275;DHT22;55463;52.324;5.122;2023-02-17T05:03:43;9.14;99.64
67275;DHT22;55463;52.324;5.122;2023-02-17T05:06:08;9.14;99.65
67275;DHT22;55463;52.324;5.122;2023-02-17T05:08:41;9.14;99.74
67275;DHT22;55463;52.324;5.122;2023-02-17T05:11:09;9.18;99.62
67275;DHT22;55463;52.324;5.122;2023-02-17T05:13:36;9.21;99.55
67275;DHT22;55463;52.324;5.122;2023-02-17T05:16:02;9.25;99.70
67275;DHT22;55463;52.324;5.122;2023-02-17T05:18:27;9.27;99.66
67275;DHT22;55463;52.324;5.122;2023-02-17T05:20:56;9.22;99.74
67275;DHT22;55463;52.324;5.122;2023-02-17T05:23:21;9.35;99.70
67275;DHT22;55463;52.324;5.122;2023-02-17T05:25:47;9.31;99.64
67275;DHT22;55463;52.324;5.122;2023-02-17T05:28:13;9.31;99.63
67275;DHT22;55463;52.324;5.122;2023-02-17T05:30:38;9.34;99.73
67275;DHT22;55463;52.324;5.122;2023-02-17T05:33:03;9.32;99.81
67275;DHT22;55463;52.324;5.122;2023-02-17T05:35:32;9.38;99.75
67275;DHT22;55463;52.324;5.122;2023-02-17T05:37:57;9.31;99.77
67275;DHT22;55463;52.324;5.122;2023-02-17T05:40:23;9.34;99.84
67275;DHT22;55463;52.324;5.122;2023-02-17T05:42:48;9.36;99.81
67275;DHT22;55463;52.324;5.122;2023-02-17T05:45:14;9.32;99.90
67275;DHT22;55463;52.324;5.122;2023-02-17T05:47:39;9.36;99.92
67275;DHT22;55463;52.324;5.122;2023-02-17T05:50:05;9.38;99.89
67275;DHT22;55463;52.324;5.122;2023-02-17T05:52:31;9.40;99.88
67275;DHT22;55463;52.324;5.122;2023-02-17T05:54:56;9.40;99.89
67275;DHT22;55463;52.324;5.122;2023-02-17T05:57:22;9.45;99.80
67275;DHT22;55463;52.324;5.122;2023-02-17T05:59:47;9.48;99.87
67275;DHT22;55463;52.324;5.122;2023-02-17T06:02:13;9.52;99.80
67275;DHT22;55463;52.324;5.122;2023-02-17T06:04:38;9.52;99.84
67275;DHT22;55463;52.324;5.122;2023-02-17T06:07:04;9.50;99.85
67275;DHT22;55463;52.324;5.122;2023-02-17T06:09:29;9.50;99.96
67275;DHT22;55463;52.324;5.122;2023-02-17T06:11:54;9.53;99.97
67275;DHT22;55463;52.324;5.122;2023-02-17T06:14:20;9.50;99.99
67275;DHT22;55463;52.324;5.122;2023-02-17T06:16:45;9.52;99.99
67275;DHT22;55463;52.324;5.122;2023-02-17T06:19:11;9.56;99.86
67275;DHT22;55463;52.324;5.122;2023-02-17T06:21:36;9.56;99.93
67275;DHT22;55463;52.324;5.122;2023-02-17T06:24:02;9.56;99.87
67275;DHT22;55463;52.324;5.122;2023-02-17T06:26:27;9.57;99.91
67275;DHT22;55463;52.324;5.122;2023-02-17T06:28:53;9.60;99.88
67275;DHT22;55463;52.324;5.122;2023-02-17T06:31:18;9.62;99.84
67275;DHT22;55463;52.324;5.122;2023-02-17T06:33:43;9.59;99.94
67275;DHT22;55463;52.324;5.122;2023-02-17T06:36:09;9.56;99.98
67275;DHT22;55463;52.324;5.122;2023-02-17T06:38:35;9.59;99.96
67275;DHT22;55463;52.324;5.122;2023-02-17T06:41:00;9.59;99.95
67275;DHT22;55463;52.324;5.122;2023-02-17T06:43:26;9.62;99.98
67275;DHT22;55463;52.324;5.122;2023-02-17T06:45:51;9.63;99.99
67275;DHT22;55463;52.324;5.122;2023-02-17T06:48:16;9.66;99.90
67275;DHT22;55463;52.324;5.122;2023-02-17T06:50:42;9.63;99.93
67275;DHT22;55463;52.324;5.122;2023-02-17T06:53:07;9.69;99.91
67275;DHT22;55463;52.324;5.122;2023-02-17T06:55:33;9.70;99.88
67275;DHT22;55463;52.324;5.122;2023-02-17T06:58:01;9.72;99.80
67275;DHT22;55463;52.324;5.122;2023-02-17T07:00:27;9.74;99.80
67275;DHT22;55463;52.324;5.122;2023-02-17T07:02:52;9.76;99.79
67275;DHT22;55463;52.324;5.122;2023-02-17T07:05:18;9.77;99.73
67275;DHT22;55463;52.324;5.122;2023-02-17T07:07:43;9.82;99.61
67275;DHT22;55463;52.324;5.122;2023-02-17T07:10:09;9.83;99.58
67275;DHT22;55463;52.324;5.122;2023-02-17T07:12:35;9.83;99.67
67275;DHT22;55463;52.324;5.122;2023-02-17T07:15:00;9.80;99.63
67275;DHT22;55463;52.324;5.122;2023-02-17T07:17:26;9.84;99.56
67275;DHT22;55463;52.324;5.122;2023-02-17T07:19:51;9.84;99.58
67275;DHT22;55463;52.324;5.122;2023-02-17T07:22:17;9.83;99.63
67275;DHT22;55463;52.324;5.122;2023-02-17T07:24:42;9.84;99.53
67275;DHT22;55463;52.324;5.122;2023-02-17T07:27:07;9.84;99.65
67275;DHT22;55463;52.324;5.122;2023-02-17T07:29:33;9.83;99.74
67275;DHT22;55463;52.324;5.122;2023-02-17T07:31:58;9.86;99.61
67275;DHT22;55463;52.324;5.122;2023-02-17T07:34:24;9.86;99.61
67275;DHT22;55463;52.324;5.122;2023-02-17T07:36:49;9.89;99.56
67275;DHT22;55463;52.324;5.122;2023-02-17T07:39:15;9.93;99.44
67275;DHT22;55463;52.324;5.122;2023-02-17T07:41:40;9.93;99.56
67275;DHT22;55463;52.324;5.122;2023-02-17T07:44:06;9.97;99.46
67275;DHT22;55463;52.324;5.122;2023-02-17T07:46:31;9.97;99.45
67275;DHT22;55463;52.324;5.122;2023-02-17T07:48:57;9.97;99.45
67275;DHT22;55463;52.324;5.122;2023-02-17T07:51:23;10.01;99.36
67275;DHT22;55463;52.324;5.122;2023-02-17T07:53:50;10.05;99.32
67275;DHT22;55463;52.324;5.122;2023-02-17T07:56:17;10.10;99.06
67275;DHT22;55463;52.324;5.122;2023-02-17T07:58:44;10.08;99.31
67275;DHT22;55463;52.324;5.122;2023-02-17T08:01:18;10.07;99.17
67275;DHT22;55463;52.324;5.122;2023-02-17T08:03:45;10.04;99.32
67275;DHT22;55463;52.324;5.122;2023-02-17T08:06:13;10.04;99.43
67275;DHT22;55463;52.324;5.122;2023-02-17T08:08:39;10.02;99.37
67275;DHT22;55463;52.324;5.122;2023-02-17T08:11:22;10.00;99.33
67275;DHT22;55463;52.324;5.122;2023-02-17T08:14:06;10.01;99.23
67275;DHT22;55463;52.324;5.122;2023-02-17T08:16:33;9.95;99.27
67275;DHT22;55463;52.324;5.122;2023-02-17T08:18:58;9.97;99.22
67275;DHT22;55463;52.324;5.122;2023-02-17T08:21:25;9.97;99.30
67275;DHT22;55463;52.324;5.122;2023-02-17T08:23:52;9.98;99.33
67275;DHT22;55463;52.324;5.122;2023-02-17T08:26:18;10.00;99.25
67275;DHT22;55463;52.324;5.122;2023-02-17T08:28:45;9.98;99.45
67275;DHT22;55463;52.324;5.122;2023-02-17T08:33:44;10.00;99.39
67275;DHT22;55463;52.324;5.122;2023-02-17T08:36:10;10.00;99.38
67275;DHT22;55463;52.324;5.122;2023-02-17T08:38:44;10.05;99.30
67275;DHT22;55463;52.324;5.122;2023-02-17T08:41:21;10.00;99.27
67275;DHT22;55463;52.324;5.122;2023-02-17T08:43:47;10.01;99.22
67275;DHT22;55463;52.324;5.122;2023-02-17T08:46:13;10.05;99.25
67275;DHT22;55463;52.324;5.122;2023-02-17T08:48:39;10.04;99.51
67275;DHT22;55463;52.324;5.122;2023-02-17T08:51:05;10.10;99.32
67275;DHT22;55463;52.324;5.122;2023-02-17T08:53:31;10.18;99.32
67275;DHT22;55463;52.324;5.122;2023-02-17T08:55:57;10.28;99.16
67275;DHT22;55463;52.324;5.122;2023-02-17T08:58:25;10.25;99.38
67275;DHT22;55463;52.324;5.122;2023-02-17T09:00:51;10.29;99.33
67275;DHT22;55463;52.324;5.122;2023-02-17T09:03:19;10.34;99.30
67275;DHT22;55463;52.324;5.122;2023-02-17T09:05:44;10.39;99.23
67275;DHT22;55463;52.324;5.122;2023-02-17T09:08:10;10.34;99.19
67275;DHT22;55463;52.324;5.122;2023-02-17T09:10:38;10.36;99.26
67275;DHT22;55463;52.324;5.122;2023-02-17T09:13:03;10.48;99.54
67275;DHT22;55463;52.324;5.122;2023-02-17T09:15:29;10.44;98.99
67275;DHT22;55463;52.324;5.122;2023-02-17T09:17:54;10.55;99.20
67275;DHT22;55463;52.324;5.122;2023-02-17T09:20:20;10.57;99.33
67275;DHT22;55463;52.324;5.122;2023-02-17T09:22:45;10.60;99.23
67275;DHT22;55463;52.324;5.122;2023-02-17T09:25:11;10.66;99.23
67275;DHT22;55463;52.324;5.122;2023-02-17T09:27:36;10.73;99.16
67275;DHT22;55463;52.324;5.122;2023-02-17T09:30:02;10.91;99.00
67275;DHT22;55463;52.324;5.122;2023-02-17T09:32:31;10.97;98.90
67275;DHT22;55463;52.324;5.122;2023-02-17T09:34:59;10.94;98.98
67275;DHT22;55463;52.324;5.122;2023-02-17T09:37:25;11.04;98.18
67275;DHT22;55463;52.324;5.122;2023-02-17T09:39:51;10.90;99.16
67275;DHT22;55463;52.324;5.122;2023-02-17T09:42:24;10.87;98.97
67275;DHT22;55463;52.324;5.122;2023-02-17T09:45:02;10.81;99.24
67275;DHT22;55463;52.324;5.122;2023-02-17T09:47:42;10.77;99.32
67275;DHT22;55463;52.324;5.122;2023-02-17T09:50:19;10.73;98.65
67275;DHT22;55463;52.324;5.122;2023-02-17T09:53:04;10.70;98.80
67275;DHT22;55463;52.324;5.122;2023-02-17T09:55:39;10.72;99.43
67275;DHT22;55463;52.324;5.122;2023-02-17T09:58:26;10.74;98.99
67275;DHT22;55463;52.324;5.122;2023-02-17T10:00:56;10.72;99.05
67275;DHT22;55463;52.324;5.122;2023-02-17T10:03:38;10.69;99.31
67275;DHT22;55463;52.324;5.122;2023-02-17T10:06:14;10.74;99.29
67275;DHT22;55463;52.324;5.122;2023-02-17T10:08:52;10.76;99.30
67275;DHT22;55463;52.324;5.122;2023-02-17T10:11:32;10.83;99.09
67275;DHT22;55463;52.324;5.122;2023-02-17T10:14:02;10.83;99.46
67275;DHT22;55463;52.324;5.122;2023-02-17T10:16:35;10.84;98.81
67275;DHT22;55463;52.324;5.122;2023-02-17T10:19:13;10.96;99.17
67275;DHT22;55463;52.324;5.122;2023-02-17T10:22:20;11.04;99.60
67275;DHT22;55463;52.324;5.122;2023-02-17T10:24:36;10.96;99.25
67275;DHT22;55463;52.324;5.122;2023-02-17T10:32:26;10.99;98.65
67275;DHT22;55463;52.324;5.122;2023-02-17T10:37:50;11.06;98.74
67275;DHT22;55463;52.324;5.122;2023-02-17T10:40:22;11.10;99.81
67275;DHT22;55463;52.324;5.122;2023-02-17T10:42:54;11.12;99.33
67275;DHT22;55463;52.324;5.122;2023-02-17T10:45:39;11.14;98.92
67275;DHT22;55463;52.324;5.122;2023-02-17T10:48:16;11.19;98.52
67275;DHT22;55463;52.324;5.122;2023-02-17T10:50:43;11.21;99.24
67275;DHT22;55463;52.324;5.122;2023-02-17T10:53:18;11.22;98.88
67275;DHT22;55463;52.324;5.122;2023-02-17T10:58:57;11.03;99.99
67275;DHT22;55463;52.324;5.122;2023-02-17T11:01:24;11.15;99.07
67275;DHT22;55463;52.324;5.122;2023-02-17T11:04:05;11.08;99.59
67275;DHT22;55463;52.324;5.122;2023-02-17T11:06:31;11.17;99.28
67275;DHT22;55463;52.324;5.122;2023-02-17T11:09:38;11.19;98.53
67275;DHT22;55463;52.324;5.122;2023-02-17T11:12:15;11.31;98.72
67275;DHT22;55463;52.324;5.122;2023-02-17T11:14:46;11.27;99.26
67275;DHT22;55463;52.324;5.122;2023-02-17T11:17:54;11.32;98.66
67275;DHT22;55463;52.324;5.122;2023-02-17T11:20:05;11.31;98.45
67275;DHT22;55463;52.324;5.122;2023-02-17T11:22:34;11.31;98.12
67275;DHT22;55463;52.324;5.122;2023-02-17T11:25:24;11.34;98.60
67275;DHT22;55463;52.324;5.122;2023-02-17T11:28:04;11.39;97.27
67275;DHT22;55463;52.324;5.122;2023-02-17T11:30:32;11.43;96.98
67275;DHT22;55463;52.324;5.122;2023-02-17T11:32:57;11.49;96.95
67275;DHT22;55463;52.324;5.122;2023-02-17T11:38:17;11.62;96.29
67275;DHT22;55463;52.324;5.122;2023-02-17T11:40:56;11.56;96.62
67275;DHT22;55463;52.324;5.122;2023-02-17T11:43:22;11.59;96.59
67275;DHT22;55463;52.324;5.122;2023-02-17T11:45:56;11.53;96.57
67275;DHT22;55463;52.324;5.122;2023-02-17T11:54:23;11.43;96.74
67275;DHT22;55463;52.324;5.122;2023-02-17T11:59:59;11.31;96.56
67275;DHT22;55463;52.324;5.122;2023-02-17T12:19:24;11.42;96.07
67275;DHT22;55463;52.324;5.122;2023-02-17T12:22:12;11.43;95.59
67275;DHT22;55463;52.324;5.122;2023-02-17T12:25:05;11.52;95.41
67275;DHT22;55463;52.324;5.122;2023-02-17T12:27:58;11.45;95.16
67275;DHT22;55463;52.324;5.122;2023-02-17T12:30:43;11.45;95.45
67275;DHT22;55463;52.324;5.122;2023-02-17T12:33:17;11.36;95.79
67275;DHT22;55463;52.324;5.122;2023-02-17T12:35:56;11.27;95.74
67275;DHT22;55463;52.324;5.122;2023-02-17T12:38:38;11.22;96.12
67275;DHT22;55463;52.324;5.122;2023-02-17T12:41:25;11.28;95.80
67275;DHT22;55463;52.324;5.122;2023-02-17T12:44:07;11.45;95.19
67275;DHT22;55463;52.324;5.122;2023-02-17T12:46:38;11.63;94.59
67275;DHT22;55463;52.324;5.122;2023-02-17T12:49:21;11.62;94.30
67275;DHT22;55463;52.324;5.122;2023-02-17T12:54:34;11.69;94.12
67275;DHT22;55463;52.324;5.122;2023-02-17T12:57:16;11.74;94.05
67275;DHT22;55463;52.324;5.122;2023-02-17T12:59:49;11.79;93.60
67275;DHT22;55463;52.324;5.122;2023-02-17T13:02:17;11.89;93.14
67275;DHT22;55463;52.324;5.122;2023-02-17T13:04:50;11.90;93.27
67275;DHT22;55463;52.324;5.122;2023-02-17T13:10:17;12.01;93.63
67275;DHT22;55463;52.324;5.122;2023-02-17T13:13:00;11.91;92.99
67275;DHT22;55463;52.324;5.122;2023-02-17T13:15:33;11.94;93.34
67275;DHT22;55463;52.324;5.122;2023-02-17T13:18:05;11.90;93.12
67275;DHT22;55463;52.324;5.122;2023-02-17T13:23:39;11.90;93.52
67275;DHT22;55463;52.324;5.122;2023-02-17T13:28:45;11.97;93.24
67275;DHT22;55463;52.324;5.122;2023-02-17T13:31:23;12.02;93.04
67275;DHT22;55463;52.324;5.122;2023-02-17T13:33:57;11.94;92.91
67275;DHT22;55463;52.324;5.122;2023-02-17T13:41:20;11.98;93.23
67275;DHT22;55463;52.324;5.122;2023-02-17T13:43:46;11.97;92.73
67275;DHT22;55463;52.324;5.122;2023-02-17T13:46:25;12.00;93.41
67275;DHT22;55463;52.324;5.122;2023-02-17T13:49:03;12.05;92.84
67275;DHT22;55463;52.324;5.122;2023-02-17T13:51:31;12.05;92.99
67275;DHT22;55463;52.324;5.122;2023-02-17T13:54:05;12.07;92.74
67275;DHT22;55463;52.324;5.122;2023-02-17T13:56:31;12.20;92.32
67275;DHT22;55463;52.324;5.122;2023-02-17T13:59:12;12.34;91.90
67275;DHT22;55463;52.324;5.122;2023-02-17T14:01:42;12.45;91.45
67275;DHT22;55463;52.324;5.122;2023-02-17T14:04:34;12.45;91.62
67275;DHT22;55463;52.324;5.122;2023-02-17T14:07:03;12.35;91.63
67275;DHT22;55463;52.324;5.122;2023-02-17T14:09:54;12.42;92.04
67275;DHT22;55463;52.324;5.122;2023-02-17T14:12:21;12.43;91.63
67275;DHT22;55463;52.324;5.122;2023-02-17T14:14:50;12.36;91.50
67275;DHT22;55463;52.324;5.122;2023-02-17T14:17:34;12.38;91.43
67275;DHT22;55463;52.324;5.122;2023-02-17T14:19:59;12.32;91.20
67275;DHT22;55463;52.324;5.122;2023-02-17T14:22:30;12.41;91.27
67275;DHT22;55463;52.324;5.122;2023-02-17T14:25:05;12.50;91.23
67275;DHT22;55463;52.324;5.122;2023-02-17T14:30:33;12.43;91.56
67275;DHT22;55463;52.324;5.122;2023-02-17T14:35:31;12.41;92.06
67275;DHT22;55463;52.324;5.122;2023-02-17T14:38:17;12.39;91.80
67275;DHT22;55463;52.324;5.122;2023-02-17T14:40:44;12.41;91.23
67275;DHT22;55463;52.324;5.122;2023-02-17T14:43:09;12.48;91.31
67275;DHT22;55463;52.324;5.122;2023-02-17T14:45:34;12.46;91.14
67275;DHT22;55463;52.324;5.122;2023-02-17T14:48:00;12.42;91.41
67275;DHT22;55463;52.324;5.122;2023-02-17T14:50:25;12.39;91.46
67275;DHT22;55463;52.324;5.122;2023-02-17T14:52:51;12.36;91.33
67275;DHT22;55463;52.324;5.122;2023-02-17T14:55:37;12.28;91.70
67275;DHT22;55463;52.324;5.122;2023-02-17T14:58:07;12.25;91.53
67275;DHT22;55463;52.324;5.122;2023-02-17T15:00:33;12.25;91.09
67275;DHT22;55463;52.324;5.122;2023-02-17T15:02:58;12.21;91.74
67275;DHT22;55463;52.324;5.122;2023-02-17T15:05:24;12.20;91.57
67275;DHT22;55463;52.324;5.122;2023-02-17T15:07:49;12.17;91.98
67275;DHT22;55463;52.324;5.122;2023-02-17T15:10:22;12.13;91.54
67275;DHT22;55463;52.324;5.122;2023-02-17T15:12:49;12.07;91.77
67275;DHT22;55463;52.324;5.122;2023-02-17T15:15:17;12.11;92.01
67275;DHT22;55463;52.324;5.122;2023-02-17T15:17:47;12.05;92.53
67275;DHT22;55463;52.324;5.122;2023-02-17T15:20:14;12.05;92.55
67275;DHT22;55463;52.324;5.122;2023-02-17T15:22:40;12.10;92.14
67275;DHT22;55463;52.324;5.122;2023-02-17T15:25:17;12.04;92.20
67275;DHT22;55463;52.324;5.122;2023-02-17T15:27:44;12.08;92.44
67275;DHT22;55463;52.324;5.122;2023-02-17T15:30:12;12.13;92.20
67275;DHT22;55463;52.324;5.122;2023-02-17T15:32:38;12.13;92.49
67275;DHT22;55463;52.324;5.122;2023-02-17T15:35:15;12.10;92.40
67275;DHT22;55463;52.324;5.122;2023-02-17T15:37:41;12.08;92.13
67275;DHT22;55463;52.324;5.122;2023-02-17T15:40:12;12.02;92.55
67275;DHT22;55463;52.324;5.122;2023-02-17T15:42:38;12.02;92.55
67275;DHT22;55463;52.324;5.122;2023-02-17T15:45:04;11.98;92.24
67275;DHT22;55463;52.324;5.122;2023-02-17T15:47:29;11.97;92.80
67275;DHT22;55463;52.324;5.122;2023-02-17T15:49:55;11.97;92.81
67275;DHT22;55463;52.324;5.122;2023-02-17T15:52:22;11.93;92.77
67275;DHT22;55463;52.324;5.122;2023-02-17T15:54:48;11.90;92.83
67275;DHT22;55463;52.324;5.122;2023-02-17T15:57:31;11.90;92.93
67275;DHT22;55463;52.324;5.122;2023-02-17T15:59:57;11.83;93.03
67275;DHT22;55463;52.324;5.122;2023-02-17T16:02:24;11.80;92.93
67275;DHT22;55463;52.324;5.122;2023-02-17T16:04:50;11.73;93.25
67275;DHT22;55463;52.324;5.122;2023-02-17T16:07:15;11.73;93.11
67275;DHT22;55463;52.324;5.122;2023-02-17T16:09:41;11.70;93.08
67275;DHT22;55463;52.324;5.122;2023-02-17T16:12:15;11.63;93.38
67275;DHT22;55463;52.324;5.122;2023-02-17T16:14:43;11.65;93.20
67275;DHT22;55463;52.324;5.122;2023-02-17T16:17:15;11.58;93.50
67275;DHT22;55463;52.324;5.122;2023-02-17T16:19:41;11.51;93.78
67275;DHT22;55463;52.324;5.122;2023-02-17T16:22:06;11.49;93.64
67275;DHT22;55463;52.324;5.122;2023-02-17T16:24:32;11.43;93.94
67275;DHT22;55463;52.324;5.122;2023-02-17T16:26:58;11.29;94.37
67275;DHT22;55463;52.324;5.122;2023-02-17T16:29:24;11.29;94.55
67275;DHT22;55463;52.324;5.122;2023-02-17T16:31:49;11.27;94.47
67275;DHT22;55463;52.324;5.122;2023-02-17T16:34:20;11.21;94.56
67275;DHT22;55463;52.324;5.122;2023-02-17T16:36:52;11.07;95.15
67275;DHT22;55463;52.324;5.122;2023-02-17T16:39:19;10.99;95.33
67275;DHT22;55463;52.324;5.122;2023-02-17T16:41:45;10.99;95.30
67275;DHT22;55463;52.324;5.122;2023-02-17T16:44:15;11.00;95.18
67275;DHT22;55463;52.324;5.122;2023-02-17T16:46:52;11.03;95.20
67275;DHT22;55463;52.324;5.122;2023-02-17T16:49:23;11.03;95.33
67275;DHT22;55463;52.324;5.122;2023-02-17T16:51:52;11.00;95.48
67275;DHT22;55463;52.324;5.122;2023-02-17T16:54:18;11.03;95.32
67275;DHT22;55463;52.324;5.122;2023-02-17T16:56:46;11.06;95.12
67275;DHT22;55463;52.324;5.122;2023-02-17T16:59:17;11.10;95.23
67275;DHT22;55463;52.324;5.122;2023-02-17T17:01:43;11.07;95.32
67275;DHT22;55463;52.324;5.122;2023-02-17T17:04:09;11.10;95.24
67275;DHT22;55463;52.324;5.122;2023-02-17T17:06:36;11.12;95.02
67275;DHT22;55463;52.324;5.122;2023-02-17T17:09:04;11.04;95.33
67275;DHT22;55463;52.324;5.122;2023-02-17T17:11:30;11.14;94.97
67275;DHT22;55463;52.324;5.122;2023-02-17T17:13:55;11.17;94.70
67275;DHT22;55463;52.324;5.122;2023-02-17T17:16:28;11.11;94.80
67275;DHT22;55463;52.324;5.122;2023-02-17T17:18:59;11.01;95.13
67275;DHT22;55463;52.324;5.122;2023-02-17T17:21:24;11.10;94.85
67275;DHT22;55463;52.324;5.122;2023-02-17T17:23:50;11.03;94.99
67275;DHT22;55463;52.324;5.122;2023-02-17T17:26:32;11.10;95.00
67275;DHT22;55463;52.324;5.122;2023-02-17T17:29:00;11.03;94.81